Flight Track Log - Related Links

Times and Time Zones

All times are in EDT time to prevent confusion due to time zone crossing. See the N295DS flight status page for this flight to view local times or setup timezone preferences in your user account.

Time Position Orientation Groundspeed Altitude Reporting Facility
EDT Latitude Longitude Course Direction KTS MPH feet Rate Location/Type
Wed 09:37:45 AM 30.0350 -89.9819 100° East 166 191 2,000  Level Houston Center
Wed 09:37:50 AM 30.0342 -89.9753 98° East 162 186 2,500 2,710 Climbing Houston Center
Wed 09:38:47 AM 30.0114 -90.0061 230° Southwest 250 288 4,800 2,773 Climbing Houston Center
Wed 09:39:49 AM 29.9967 -90.0556 251° West 176 203 8,000 2,683 Climbing Houston Center
Wed 09:40:50 AM 29.9803 -90.1097 251° West 174 200 10,300 2,390 Climbing Houston Center
Wed 09:41:52 AM 29.9583 -90.1758 249° West 183 211 12,900 2,274 Climbing Houston Center
Wed 09:42:54 AM 29.9383 -90.2325 248° West 189 217 15,000 2,000 Climbing Houston Center
Wed 09:43:55 AM 29.9186 -90.2842 246° West 180 207 17,000 1,756 Climbing Houston Center
Wed 09:44:57 AM 29.9003 -90.3408 250° West 186 214 18,600 1,610 Climbing Houston Center
Wed 09:45:58 AM 29.8822 -90.3981 250° West 190 219 20,300 1,610 Climbing Houston Center
Wed 09:47:00 AM 29.8631 -90.4583 250° West 199 229 21,900 1,597 Climbing Houston Center
Wed 09:48:02 AM 29.8408 -90.5189 247° West 204 235 23,600 1,340 Climbing Houston Center
Wed 09:54:01 AM 29.6818 -90.9042 247° West 231 266 31,300 1,061 Climbing FlightAware ADS-B
Wed 09:57:50 AM 29.6644 -91.1723 266° West 252 290 34,000 625 Climbing FlightAware ADS-B
Wed 09:58:20 AM 29.6662 -91.2142 273° West 262 302 34,000  Level FlightAware ADS-B
Wed 10:00:52 AM 29.6753 -91.4387 273° West 287 330 34,000  Level FlightAware ADS-B
Wed 10:02:13 AM 29.6802 -91.5622 273° West 290 334 34,000  Level FlightAware ADS-B
Wed 10:02:44 AM 29.6820 -91.6097 273° West 290 334 34,000  Level FlightAware ADS-B
Wed 10:03:54 AM 29.6862 -91.7193 273° West 293 337 34,000  Level FlightAware ADS-B
Wed 10:04:27 AM 29.6880 -91.7694 272° West 294 338 34,000  Level FlightAware ADS-B
Wed 10:04:57 AM 29.6898 -91.8175 272° West 294 338 34,000  Level FlightAware ADS-B
Wed 10:05:28 AM 29.6916 -91.8657 272° West 294 338 34,000 943 Level FlightAware ADS-B
Wed 10:06:07 AM 29.6937 -91.9220 272° West 291 335 35,100 1,217 Climbing FlightAware ADS-B
Wed 10:06:37 AM 29.6952 -91.9636 272° West 259 298 35,400 600 Climbing FlightAware ADS-B
Wed 10:07:07 AM 29.6966 -92.0049 272° West 255 293 35,700 492 Climbing FlightAware ADS-B
Wed 10:07:38 AM 29.6981 -92.0468 272° West 255 293 35,900 257 Climbing FlightAware ADS-B
Wed 10:08:17 AM 29.7000 -92.1001 272° West 257 296 36,000 86 Climbing FlightAware ADS-B
Wed 10:08:48 AM 29.7015 -92.1433 272° West 267 307 36,000  Level FlightAware ADS-B
Wed 10:09:18 AM 29.7030 -92.1866 272° West 273 314 36,000  Level FlightAware ADS-B
Wed 10:10:04 AM 29.7053 -92.2540 272° West 278 320 36,000  Level FlightAware ADS-B
Wed 10:10:52 AM 29.7077 -92.3247 272° West 280 322 36,000  Level FlightAware ADS-B
Wed 10:11:22 AM 29.7091 -92.3694 272° West 280 322 36,000  Level FlightAware ADS-B
Wed 10:11:53 AM 29.7106 -92.4154 272° West 280 322 36,000  Level FlightAware ADS-B
Wed 10:12:46 AM 29.7132 -92.4940 272° West 281 323 36,000  Level FlightAware ADS-B
Wed 10:13:16 AM 29.7146 -92.5390 272° West 281 323 36,000  Level FlightAware ADS-B
Wed 10:13:46 AM 29.7160 -92.5841 272° West 282 325 36,000  Level FlightAware ADS-B
Wed 10:14:17 AM 29.7174 -92.6296 272° West 282 325 36,000  Level FlightAware ADS-B
Wed 10:14:50 AM 29.7189 -92.6785 272° West 283 326 36,000  Level FlightAware ADS-B
Wed 10:15:22 AM 29.7204 -92.7274 272° West 281 323 36,000  Level FlightAware ADS-B
Wed 10:16:04 AM 29.7222 -92.7893 272° West 282 325 36,000  Level FlightAware ADS-B
Wed 10:16:35 AM 29.7236 -92.8359 272° West 283 326 36,000  Level FlightAware ADS-B
Wed 10:17:05 AM 29.7250 -92.8819 272° West 283 326 36,000  Level FlightAware ADS-B
Wed 10:17:36 AM 29.7263 -92.9274 272° West 284 327 36,000  Level FlightAware ADS-B
Wed 10:18:06 AM 29.7276 -92.9738 272° West 285 328 36,000  Level FlightAware ADS-B
Wed 10:18:38 AM 29.7289 -93.0214 272° West 284 327 36,000  Level FlightAware ADS-B
Wed 10:19:10 AM 29.7302 -93.0696 272° West 285 328 36,000  Level FlightAware ADS-B
Wed 10:19:41 AM 29.7316 -93.1171 272° West 287 330 36,000  Level FlightAware ADS-B
Wed 10:20:11 AM 29.7328 -93.1633 272° West 290 334 36,000  Level FlightAware ADS-B
Wed 10:20:41 AM 29.7340 -93.2096 272° West 291 335 36,000  Level FlightAware ADS-B
Wed 10:21:11 AM 29.7352 -93.2564 272° West 292 336 36,000  Level FlightAware ADS-B
Wed 10:21:41 AM 29.7365 -93.3027 272° West 292 336 36,000  Level FlightAware ADS-B
Wed 10:22:13 AM 29.7377 -93.3520 272° West 292 336 36,000  Level FlightAware ADS-B
Wed 10:22:43 AM 29.7389 -93.3986 272° West 292 336 36,000  Level FlightAware ADS-B
Wed 10:23:17 AM 29.7402 -93.4515 272° West 293 337 36,000  Level FlightAware ADS-B
Wed 10:23:48 AM 29.7414 -93.4998 272° West 295 339 36,000  Level FlightAware ADS-B
Wed 10:24:18 AM 29.7426 -93.5472 272° West 295 339 36,000  Level FlightAware ADS-B
Wed 10:24:49 AM 29.7437 -93.5943 272° West 295 339 36,000  Level FlightAware ADS-B
Wed 10:25:19 AM 29.7448 -93.6421 272° West 295 339 36,000  Level FlightAware ADS-B
Wed 10:25:49 AM 29.7458 -93.6891 271° West 294 338 36,000  Level FlightAware ADS-B
Wed 10:26:19 AM 29.7469 -93.7364 272° West 295 339 36,000  Level FlightAware ADS-B
Wed 10:26:50 AM 29.7480 -93.7847 272° West 294 338 36,000  Level FlightAware ADS-B
Wed 10:27:21 AM 29.7490 -93.8321 271° West 295 339 36,000  Level FlightAware ADS-B
Wed 10:27:51 AM 29.7500 -93.8800 271° West 296 341 36,000  Level FlightAware ADS-B
Wed 10:28:21 AM 29.7510 -93.9273 271° West 297 342 36,000  Level FlightAware ADS-B
Wed 10:28:53 AM 29.7521 -93.9784 271° West 298 343 36,000  Level FlightAware ADS-B
Wed 10:29:24 AM 29.7530 -94.0268 271° West 299 344 36,000  Level FlightAware ADS-B
Wed 10:29:55 AM 29.7540 -94.0758 271° West 300 345 36,000  Level FlightAware ADS-B
Wed 10:30:25 AM 29.7550 -94.1245 271° West 301 346 36,000  Level FlightAware ADS-B
Wed 10:30:55 AM 29.7560 -94.1727 271° West 304 350 36,000  Level FlightAware ADS-B
Wed 10:31:26 AM 29.7569 -94.2227 271° West 305 351 36,000  Level FlightAware ADS-B
Wed 10:31:57 AM 29.7579 -94.2721 271° West 306 352 36,000  Level FlightAware ADS-B
Wed 10:32:27 AM 29.7588 -94.3220 271° West 307 353 36,000  Level FlightAware ADS-B
Wed 10:32:57 AM 29.7596 -94.3715 271° West 308 354 36,000  Level FlightAware ADS-B
Wed 10:33:28 AM 29.7605 -94.4209 271° West 309 356 36,000  Level FlightAware ADS-B
Wed 10:33:58 AM 29.7614 -94.4709 271° West 309 356 36,000  Level FlightAware ADS-B
Wed 10:34:29 AM 29.7621 -94.5206 271° West 309 356 36,000  Level FlightAware ADS-B
Wed 10:34:59 AM 29.7630 -94.5709 271° West 308 354 36,000  Level FlightAware ADS-B
Wed 10:35:24 AM 29.7637 -94.6115 271° West 307 353 36,000  Level FlightAware ADS-B
Wed 10:35:53 AM 29.7644 -94.6589 271° West 306 352 36,000  Level FlightAware ADS-B
Wed 10:36:24 AM 29.7652 -94.7090 271° West 306 352 36,000  Level FlightAware ADS-B
Wed 10:36:54 AM 29.7659 -94.7575 271° West 305 351 36,000  Level FlightAware ADS-B
Wed 10:37:25 AM 29.7666 -94.8073 271° West 305 351 36,000  Level FlightAware ADS-B
Wed 10:37:55 AM 29.7673 -94.8557 271° West 304 350 36,000  Level FlightAware ADS-B
Wed 10:38:25 AM 29.7680 -94.9046 271° West 304 350 36,000  Level FlightAware ADS-B
Wed 10:38:55 AM 29.7686 -94.9534 271° West 304 350 36,000  Level FlightAware ADS-B
Wed 10:38:56 AM 29.7686 -94.9479 90° East 304 350 36,000  Level FlightAware ADS-B
Wed 10:39:26 AM 29.7692 -94.9981 271° West 303 349 36,000  Level FlightAware ADS-B
Wed 10:39:27 AM 29.7693 -95.0040 271° West 303 349 36,000  Level FlightAware ADS-B
Wed 10:39:57 AM 29.7699 -95.0535 271° West 303 349 36,000  Level FlightAware ADS-B
Wed 10:40:28 AM 29.7705 -95.1026 271° West 300 345 36,000  Level FlightAware ADS-B
Wed 10:40:58 AM 29.7711 -95.1504 271° West 299 344 36,000  Level FlightAware ADS-B
Wed 10:41:06 AM 29.7712 -95.1639 271° West 298 343 36,000  Level FlightAware ADS-B
Wed 10:41:29 AM 29.7716 -95.1995 271° West 298 343 36,000  Level FlightAware ADS-B
Wed 10:41:47 AM 29.7720 -95.2274 271° West 298 343 36,000  Level FlightAware ADS-B
Wed 10:42:00 AM 29.7722 -95.2489 271° West 299 344 36,000  Level FlightAware ADS-B
Wed 10:42:31 AM 29.7727 -95.2968 271° West 299 344 36,000  Level FlightAware ADS-B
Wed 10:42:51 AM 29.7731 -95.3299 271° West 297 342 36,000  Level FlightAware ADS-B
Wed 10:43:01 AM 29.7732 -95.3451 270° West 297 342 36,000  Level FlightAware ADS-B
Wed 10:43:31 AM 29.7737 -95.3929 271° West 295 339 36,000  Level FlightAware ADS-B
Wed 10:44:06 AM 29.7742 -95.4464 271° West 294 338 36,000  Level FlightAware ADS-B
Wed 10:44:37 AM 29.7747 -95.4949 271° West 294 338 36,000  Level FlightAware ADS-B
Wed 10:45:07 AM 29.7751 -95.5429 271° West 294 338 36,000  Level FlightAware ADS-B
Wed 10:45:38 AM 29.7756 -95.5907 271° West 295 339 36,000  Level FlightAware ADS-B
Wed 10:46:09 AM 29.7759 -95.6394 270° West 296 341 36,000  Level FlightAware ADS-B
Wed 10:46:40 AM 29.7763 -95.6888 271° West 298 343 36,000  Level FlightAware ADS-B
Wed 10:47:40 AM 29.7770 -95.7828 270° West 296 341 36,000  Level FlightAware ADS-B
Wed 10:48:10 AM 29.7773 -95.8301 270° West 296 341 36,000  Level FlightAware ADS-B
Wed 10:48:40 AM 29.7776 -95.8779 270° West 298 343 36,000  Level FlightAware ADS-B
Wed 10:49:11 AM 29.7779 -95.9263 270° West 299 344 36,000  Level FlightAware ADS-B
Wed 10:49:42 AM 29.7782 -95.9750 270° West 299 344 36,000  Level FlightAware ADS-B
Wed 10:50:12 AM 29.7784 -96.0228 270° West 299 344 36,000  Level FlightAware ADS-B
Wed 10:50:42 AM 29.7787 -96.0715 270° West 302 348 36,000 -305 Level FlightAware ADS-B
Wed 10:51:11 AM 29.7789 -96.1183 270° West 310 357 35,700 -700 Descending FlightAware ADS-B
Wed 10:51:42 AM 29.7791 -96.1694 270° West 316 364 35,300 -698 Descending FlightAware ADS-B
Wed 10:51:54 AM 29.7792 -96.1893 270° West 318 366 35,200 -500 Descending FlightAware ADS-B
Wed 10:52:06 AM 29.7802 -96.2096 273° West 321 369 35,100 -558 Descending FlightAware ADS-B
Wed 10:52:37 AM 29.7849 -96.2632 276° West 325 374 34,800 -581 Descending FlightAware ADS-B
Wed 10:53:08 AM 29.7893 -96.3165 275° West 327 376 34,500 -689 Descending FlightAware ADS-B
Wed 10:53:38 AM 29.7932 -96.3688 275° West 331 381 34,100 -700 Descending FlightAware ADS-B
Wed 10:54:08 AM 29.7973 -96.4222 275° West 333 383 33,800 -689 Descending FlightAware ADS-B
Wed 10:54:39 AM 29.8012 -96.4758 275° West 335 386 33,400 -689 Descending FlightAware ADS-B
Wed 10:55:09 AM 29.8052 -96.5296 275° West 335 386 33,100 -700 Descending FlightAware ADS-B
Wed 10:55:39 AM 29.8091 -96.5831 275° West 334 384 32,700 -689 Descending FlightAware ADS-B
Wed 10:56:10 AM 29.8131 -96.6372 275° West 335 386 32,400 -689 Descending FlightAware ADS-B
Wed 10:56:40 AM 29.8171 -96.6911 275° West 334 384 32,000 -689 Descending FlightAware ADS-B
Wed 10:57:11 AM 29.8210 -96.7450 275° West 333 383 31,700 -787 Descending FlightAware ADS-B
Wed 10:57:41 AM 29.8249 -96.7981 275° West 334 384 31,200 -1,000 Descending FlightAware ADS-B
Wed 10:58:11 AM 29.8287 -96.8516 275° West 335 386 30,700 -968 Descending FlightAware ADS-B
Wed 10:58:43 AM 29.8328 -96.9084 275° West 335 386 30,200 -947 Descending FlightAware ADS-B
Wed 10:59:08 AM 29.8360 -96.9525 275° West 335 386 29,800 -1,091 Descending FlightAware ADS-B
Wed 10:59:38 AM 29.8398 -97.0058 275° West 334 384 29,200 -1,300 Descending FlightAware ADS-B
Wed 11:00:08 AM 29.8436 -97.0595 275° West 338 389 28,500 -1,645 Descending FlightAware ADS-B
Wed 11:00:40 AM 29.8477 -97.1171 275° West 348 400 27,500 -2,032 Descending FlightAware ADS-B
Wed 11:01:10 AM 29.8516 -97.1734 275° West 352 405 26,400 -2,100 Descending FlightAware ADS-B
Wed 11:01:40 AM 29.8555 -97.2292 275° West 338 389 25,400 -2,222 Descending FlightAware ADS-B
Wed 11:02:00 AM 29.8579 -97.2637 275° West 24,600 -2,500 Descending FlightAware ADS-B
Wed 11:02:04 AM 29.8584 -97.2713 274° West 334 384 24,400 -2,500 Descending FlightAware ADS-B
Wed 11:02:12 AM 29.8594 -97.2858 275° West 332 382 24,100 -2,000 Descending FlightAware ADS-B
Wed 11:02:34 AM 29.8621 -97.3241 275° West 326 375 23,400 -1,935 Descending FlightAware ADS-B
Wed 11:02:43 AM 29.8631 -97.3390 274° West 325 374 23,100 -1,935 Descending FlightAware ADS-B
Wed 11:03:05 AM 29.8657 -97.3776 274° West 326 375 22,400 -1,935 Descending FlightAware ADS-B
Wed 11:03:14 AM 29.8667 -97.3928 274° West 325 374 22,100 -2,000 Descending FlightAware ADS-B
Wed 11:03:41 AM 29.8699 -97.4392 275° West 324 373 21,200 -2,108 Descending FlightAware ADS-B
Wed 11:03:51 AM 29.8711 -97.4572 274° West 324 373 20,800 -2,000 Descending FlightAware ADS-B
Wed 11:04:11 AM 29.8734 -97.4906 275° West 323 372 20,200 -1,946 Descending FlightAware ADS-B
Wed 11:04:28 AM 29.8754 -97.5204 274° West 321 369 19,600 -2,000 Descending FlightAware ADS-B
Wed 11:04:41 AM 29.8768 -97.5424 274° West 319 367 19,200 -1,742 Descending FlightAware ADS-B
Wed 11:04:59 AM 29.8789 -97.5730 275° West 319 367 18,700 -1,742 Descending FlightAware ADS-B
Wed 11:05:12 AM 29.8802 -97.5933 274° West 315 362 18,300 -1,615 Descending FlightAware ADS-B
Wed 11:05:25 AM 29.8818 -97.6161 275° West 312 359 18,000 -1,500 Descending FlightAware ADS-B
Wed 11:05:32 AM 29.8824 -97.6276 273° West 311 358 17,800 -1,714 Descending FlightAware ADS-B
Wed 11:05:46 AM 29.8816 -97.6509 268° West 309 356 17,400 -1,875 Descending FlightAware ADS-B
Wed 11:05:48 AM 29.8814 -97.6541 266° West 309 356 17,300 -2,057 Descending FlightAware ADS-B
Wed 11:06:21 AM 29.8756 -97.7075 263° West 311 358 16,200 -2,063 Descending FlightAware ADS-B
Wed 11:06:52 AM 29.8700 -97.7565 263° West 297 342 15,100 -2,143 Descending FlightAware ADS-B
Wed 11:07:03 AM 29.8678 -97.7737 262° West 299 344 14,700 -2,195 Descending FlightAware ADS-B
Wed 11:07:33 AM 29.8585 -97.8212 257° West 303 349 13,600 -1,672 Descending FlightAware ADS-B
Wed 11:08:04 AM 29.8498 -97.8686 258° West 290 334 13,000 -581 Descending FlightAware ADS-B
Wed 11:08:35 AM 29.8409 -97.9157 258° West 293 337 13,000 -581 Level FlightAware ADS-B
Wed 11:09:06 AM 29.8320 -97.9626 258° West 288 331 12,400 -1,279 Descending FlightAware ADS-B
Wed 11:09:36 AM 29.8234 -98.0079 258° West 289 333 11,700 -1,448 Descending FlightAware ADS-B
Wed 11:10:04 AM 29.8157 -98.0480 258° West 276 318 11,000 -1,421 Descending FlightAware ADS-B
Wed 11:10:14 AM 29.8125 -98.0628 256° West 270 311 10,800 -1,154 Descending FlightAware ADS-B
Wed 11:10:30 AM 29.8046 -98.0825 245° Southwest 263 303 10,500 -1,297 Descending FlightAware ADS-B
Wed 11:10:51 AM 29.7931 -98.1094 244° Southwest 271 312 10,000 -1,459 Descending FlightAware ADS-B
Wed 11:11:07 AM 29.7844 -98.1301 244° Southwest 270 311 9,600 -1,548 Descending FlightAware ADS-B
Wed 11:11:22 AM 29.7761 -98.1501 244° Southwest 268 308 9,200 -1,548 Descending FlightAware ADS-B
Wed 11:11:38 AM 29.7674 -98.1708 244° Southwest 267 307 8,800 -1,355 Descending FlightAware ADS-B
Wed 11:11:53 AM 29.7593 -98.1899 244° Southwest 267 307 8,500 -1,400 Descending FlightAware ADS-B
Wed 11:12:08 AM 29.7511 -98.2094 244° Southwest 265 305 8,100 -1,355 Descending FlightAware ADS-B
Wed 11:12:24 AM 29.7427 -98.2291 244° Southwest 262 302 7,800 -1,313 Descending FlightAware ADS-B
Wed 11:12:40 AM 29.7346 -98.2484 244° Southwest 261 300 7,400 -1,548 Descending FlightAware ADS-B
Wed 11:12:55 AM 29.7263 -98.2680 244° Southwest 260 299 7,000 -1,313 Descending FlightAware ADS-B
Wed 11:13:12 AM 29.7177 -98.2882 244° Southwest 260 299 6,700 -1,371 Descending FlightAware ADS-B
Wed 11:13:30 AM 29.7076 -98.3117 244° Southwest 260 299 6,200 -1,235 Descending FlightAware ADS-B
Wed 11:13:46 AM 29.6994 -98.3312 244° Southwest 258 297 6,000 -375 Descending FlightAware ADS-B
Wed 11:14:02 AM 29.6909 -98.3512 244° Southwest 256 295 6,000  Level FlightAware ADS-B
Wed 11:14:18 AM 29.6830 -98.3699 244° Southwest 254 292 6,000  Level FlightAware ADS-B
Wed 11:14:34 AM 29.6748 -98.3891 244° Southwest 254 292 6,000 -194 Level FlightAware ADS-B
Wed 11:14:49 AM 29.6670 -98.4073 244° Southwest 254 292 5,900 -667 Descending FlightAware ADS-B
Wed 11:15:01 AM 29.6608 -98.4220 244° Southwest 252 290 5,700 -1,440 Descending FlightAware ADS-B
Wed 11:15:14 AM 29.6544 -98.4377 245° Southwest 249 287 5,300 -1,667 Descending FlightAware ADS-B
Wed 11:15:19 AM 29.6528 -98.4444 255° West 251 289 5,200 -1,200 Descending FlightAware ADS-B
Wed 11:15:24 AM 29.6526 -98.4513 268° West 255 293 5,100 -1,000 Descending FlightAware ADS-B
Wed 11:15:31 AM 29.6543 -98.4601 283° West 260 299 5,000 -115 Descending FlightAware ADS-B
Wed 11:16:16 AM 29.6852 -98.5099 306° West 257 296 5,000 -190 Level FlightAware ADS-B
Wed 11:16:34 AM 29.6980 -98.5285 308° West 237 273 4,800 -471 Descending FlightAware ADS-B
Wed 11:18:36 AM 29.7785 -98.6468 308° West 236 272 3,900 -397 Descending FlightAware ADS-B
Wed 11:18:50 AM 29.7789 -98.6630 272° West 213 245 3,900 -353 Level FlightAware ADS-B
Wed 11:18:53 AM 29.7777 -98.6666 249° West 210 242 3,800 -750 Descending FlightAware ADS-B
Wed 11:18:58 AM 29.7753 -98.6707 236° Southwest 207 238 3,800 -750 Level FlightAware ADS-B
Wed 11:19:01 AM 29.7734 -98.6731 228° Southwest 204 235 3,700 -923 Descending FlightAware ADS-B
Wed 11:19:11 AM 29.7663 -98.6800 220° Southwest 200 230 3,600 -923 Descending FlightAware ADS-B
Wed 11:19:14 AM 29.7635 -98.6818 209° Southwest 197 227 3,500 -1,125 Descending FlightAware ADS-B
Wed 11:19:27 AM 29.7522 -98.6843 191° South 193 222 3,300 -94 Descending FlightAware ADS-B
Wed 11:22:26 AM 29.6217 -98.5872 147° Southeast 190 219 3,200 -143 Descending FlightAware ADS-B
Wed 11:22:57 AM 29.6092 -98.5711 147° Southeast 161 185 2,800 -818 Descending Houston Center
Wed 11:23:10 AM 29.6056 -98.5669 135° Southeast 129 148 2,600 -568 Descending Houston Center
Wed 11:24:11 AM 29.5819 -98.5383 133° Southeast 101 116 2,100 -595 Descending Houston Center
Wed 11:25:01 AM 29.5644 -98.5125 128° Southeast 116 133 1,500 -700 Descending Houston Center
Wed 11:25:11 AM 29.5606 -98.5097 148° Southeast 118 136 1,400 -484 Descending Houston Center
Wed 11:26:03 AM 29.5467 -98.4822 120° Southeast 116 133 1,000 -462 Descending Houston Center

Login

Don't have an account? Register now (free) for customized features, flight alerts, and more!